Time;durP1;ratioP1;P1;durP2;ratioP2;P2;SDS_P1;SDS_P2;PMS_P1;PMS_P2;Temp;Humidity;BMP_temperature;BMP_pressure;BME280_temperature;BME280_humidity;BME280_pressure;Samples;Min_cycle;Max_cycle;Signal;HPM_P1;HPM_P2
2022/07/10 00:01:09;;;;;;;15.32;10.77;;;;;;;18.67;77.32;98732.69;5046662;28;20134;-68
2022/07/10 00:03:34;;;;;;;17.02;9.85;;;;;;;18.63;77.28;98708.34;5026949;28;20461;-69
2022/07/10 00:06:01;;;;;;;14.40;10.88;;;;;;;18.57;78.13;98685.44;5032555;28;20045;-67
2022/07/10 00:08:26;;;;;;;11.45;9.70;;;;;;;18.52;76.21;98680.19;5034132;28;20084;-68
2022/07/10 00:10:52;;;;;;;12.05;10.07;;;;;;;18.44;77.21;98695.13;5029316;28;20159;-68
2022/07/10 00:13:18;;;;;;;13.65;10.48;;;;;;;18.30;78.35;98697.88;5032973;28;20042;-68
2022/07/10 00:15:43;;;;;;;13.70;11.13;;;;;;;18.23;78.74;98694.03;5044079;28;20036;-68
2022/07/10 00:18:09;;;;;;;14.57;11.18;;;;;;;18.23;79.50;98697.50;5052326;28;20457;-68
2022/07/10 00:20:36;;;;;;;14.57;11.60;;;;;;;18.25;79.71;98689.16;5050930;28;20071;-68
2022/07/10 00:23:01;;;;;;;13.38;11.98;;;;;;;18.28;80.05;98673.25;5050981;28;20045;-68
2022/07/10 00:25:27;;;;;;;14.35;12.13;;;;;;;18.29;79.37;98677.50;5050834;28;20051;-68
2022/07/10 00:27:53;;;;;;;17.77;12.98;;;;;;;18.27;80.30;98678.94;5040608;28;20446;-68
2022/07/10 00:30:19;;;;;;;17.38;13.35;;;;;;;18.27;80.69;98681.59;5030996;28;20088;-67
2022/07/10 00:32:45;;;;;;;15.68;13.23;;;;;;;18.22;80.06;98682.50;5032431;28;20403;-69
2022/07/10 00:35:11;;;;;;;17.77;13.70;;;;;;;18.23;80.95;98699.41;5032322;28;20403;-68
2022/07/10 00:37:36;;;;;;;19.02;14.30;;;;;;;18.20;81.42;98694.63;5014623;28;20037;-69
2022/07/10 00:40:04;;;;;;;20.67;14.63;;;;;;;18.17;81.10;98691.47;5030995;28;20052;-69
2022/07/10 00:42:30;;;;;;;20.23;15.48;;;;;;;18.12;80.49;98680.09;5031054;28;20510;-68
2022/07/10 00:44:55;;;;;;;19.52;13.70;;;;;;;18.06;80.36;98674.03;5030685;28;20311;-68
2022/07/10 00:47:22;;;;;;;16.13;13.23;;;;;;;18.01;80.76;98673.38;5032294;28;20041;-68
2022/07/10 00:49:47;;;;;;;15.88;13.90;;;;;;;17.96;81.28;98668.13;5030958;28;20271;-67
2022/07/10 00:52:15;;;;;;;18.30;14.63;;;;;;;17.95;81.61;98663.84;5030899;28;20144;-67
2022/07/10 00:54:45;;;;;;;18.55;14.90;;;;;;;17.89;81.55;98655.13;5031993;28;20042;-67
2022/07/10 00:57:14;;;;;;;20.88;15.50;;;;;;;17.85;81.49;98660.31;5030607;28;20523;-68
2022/07/10 00:59:40;;;;;;;17.98;15.48;;;;;;;17.84;81.98;98650.66;5034968;28;20047;-68
2022/07/10 01:02:06;;;;;;;22.15;16.52;;;;;;;17.79;82.47;98637.38;5041259;28;20061;-67
2022/07/10 01:04:32;;;;;;;18.40;15.75;;;;;;;17.76;82.69;98637.94;5049675;28;20414;-67
2022/07/10 01:06:58;;;;;;;18.20;14.43;;;;;;;17.69;82.28;98642.94;5031870;28;20187;-67
2022/07/10 01:09:24;;;;;;;17.23;14.43;;;;;;;17.69;82.19;98645.63;5013803;28;20132;-67
2022/07/10 01:11:50;;;;;;;18.15;15.63;;;;;;;17.67;82.69;98642.44;5047161;28;20045;-69
2022/07/10 01:14:16;;;;;;;17.10;15.07;;;;;;;17.61;82.38;98647.13;5035401;28;20100;-68
2022/07/10 01:16:42;;;;;;;18.77;15.32;;;;;;;17.62;82.75;98648.72;5030050;28;20045;-69
2022/07/10 01:19:08;;;;;;;18.13;15.68;;;;;;;17.64;82.87;98645.72;4997784;28;20068;-68
2022/07/10 01:21:36;;;;;;;19.15;15.57;;;;;;;17.62;83.03;98654.09;5045793;28;20452;-68
2022/07/10 01:24:09;;;;;;;21.98;16.15;;;;;;;17.60;83.45;98647.44;5046308;28;20167;-68
2022/07/10 01:26:36;;;;;;;19.80;15.50;;;;;;;17.57;82.99;98645.38;5032523;28;20068;-69
2022/07/10 01:29:04;;;;;;;18.10;15.77;;;;;;;17.57;83.05;98626.59;5037580;28;20395;-68
2022/07/10 01:31:31;;;;;;;20.70;14.80;;;;;;;17.53;82.90;98612.22;5048369;28;20053;-67
2022/07/10 01:33:56;;;;;;;17.73;14.65;;;;;;;17.52;82.62;98605.28;5013769;28;20037;-68
2022/07/10 01:36:23;;;;;;;18.33;15.23;;;;;;;17.51;83.04;98588.41;5050162;28;20437;-67
2022/07/10 01:38:53;;;;;;;15.82;13.63;;;;;;;17.45;82.10;98581.59;5036627;28;20045;-66
2022/07/10 01:41:19;;;;;;;12.75;10.15;;;;;;;17.47;79.49;98568.66;5022685;28;20128;-68
2022/07/10 01:43:45;;;;;;;12.63;10.70;;;;;;;17.52;79.09;98576.59;5056381;28;20048;-66
2022/07/10 01:46:12;;;;;;;14.60;10.07;;;;;;;17.56;79.15;98596.34;5056085;28;20044;-67
2022/07/10 01:48:39;;;;;;;12.40;10.95;;;;;;;17.60;79.42;98589.28;5040017;28;20049;-67
2022/07/10 01:51:06;;;;;;;14.68;12.20;;;;;;;17.63;80.58;98609.31;5057133;28;20091;-69
2022/07/10 01:53:32;;;;;;;13.73;12.32;;;;;;;17.66;80.82;98606.81;5054494;28;20089;-67
2022/07/10 01:55:59;;;;;;;17.27;13.38;;;;;;;17.73;81.52;98614.44;5057857;28;20049;-67
2022/07/10 01:58:24;;;;;;;20.20;15.55;;;;;;;17.75;81.58;98616.81;5020466;28;20069;-68
2022/07/10 02:00:50;;;;;;;18.42;15.82;;;;;;;17.77;81.24;98601.25;5039463;28;20073;-66
2022/07/10 02:06:00;;;;;;;17.13;14.88;;;;;;;17.82;80.74;98585.84;5050252;28;20034;-67
2022/07/10 02:08:25;;;;;;;18.35;15.43;;;;;;;17.80;80.40;98582.69;5037338;28;20041;-67
2022/07/10 02:10:51;;;;;;;17.52;14.68;;;;;;;17.76;79.84;98578.19;5032917;28;20040;-68
2022/07/10 02:13:20;;;;;;;11.05;9.80;;;;;;;17.76;76.81;98572.81;5056127;28;20127;-68
2022/07/10 02:16:05;;;;;;;10.60;8.82;;;;;;;17.78;75.69;98573.34;5057040;28;20442;-69
2022/07/10 02:18:32;;;;;;;11.43;8.80;;;;;;;17.79;75.32;98575.72;5056245;28;20049;-68
2022/07/10 02:20:58;;;;;;;10.38;8.68;;;;;;;17.82;75.02;98559.03;5034523;28;20051;-70
2022/07/10 02:23:23;;;;;;;9.57;7.90;;;;;;;17.85;74.82;98557.63;5043065;28;20045;-68
2022/07/10 02:25:49;;;;;;;9.27;8.38;;;;;;;17.90;74.59;98563.66;5036395;28;20411;-68
2022/07/10 02:28:15;;;;;;;8.98;7.60;;;;;;;17.98;74.29;98572.09;5053849;28;20491;-69
2022/07/10 02:30:42;;;;;;;9.55;7.10;;;;;;;18.08;73.24;98569.13;5037303;28;20051;-69
2022/07/10 02:33:07;;;;;;;8.40;7.47;;;;;;;18.32;73.33;98568.78;5028057;28;20132;-69
2022/07/10 02:35:33;;;;;;;10.30;8.02;;;;;;;18.91;71.46;98576.63;5038344;28;20140;-69
2022/07/10 02:37:59;;;;;;;10.25;7.43;;;;;;;19.47;69.29;98574.97;5035571;28;20077;-68
2022/07/10 02:40:25;;;;;;;11.18;7.32;;;;;;;19.75;67.59;98570.13;5037414;28;20049;-68
2022/07/10 02:42:51;;;;;;;8.38;7.13;;;;;;;19.83;67.47;98581.97;5037527;28;20115;-69
2022/07/10 02:45:16;;;;;;;9.40;7.85;;;;;;;20.44;66.83;98588.00;5035850;28;20557;-68
2022/07/10 02:47:42;;;;;;;9.18;8.27;;;;;;;21.04;65.03;98594.28;5032887;28;20037;-68
2022/07/10 02:50:09;;;;;;;9.25;8.30;;;;;;;21.48;63.42;98602.91;5033026;28;20038;-69
2022/07/10 02:52:35;;;;;;;11.10;8.80;;;;;;;21.96;61.83;98598.84;5044253;28;20068;-69
2022/07/10 02:55:01;;;;;;;12.00;8.65;;;;;;;22.38;60.71;98585.28;5027793;28;20530;-69
2022/07/10 02:57:29;;;;;;;9.73;7.95;;;;;;;22.79;59.11;98597.81;5024966;28;20132;-69
2022/07/10 02:59:55;;;;;;;11.13;8.13;;;;;;;23.14;57.93;98594.66;5015876;28;20132;-68
2022/07/10 03:02:21;;;;;;;9.45;7.97;;;;;;;23.38;56.43;98593.84;5032148;28;20057;-67
2022/07/10 03:04:47;;;;;;;11.90;7.88;;;;;;;23.68;55.81;98609.75;5016249;28;20482;-68
2022/07/10 03:07:13;;;;;;;8.63;7.68;;;;;;;23.84;55.87;98610.66;5046811;28;20065;-68
2022/07/10 03:09:39;;;;;;;9.98;7.60;;;;;;;24.10;55.12;98615.63;5050239;28;20434;-68
2022/07/10 03:12:05;;;;;;;8.98;7.85;;;;;;;23.96;54.98;98612.53;5041431;28;20052;-68
2022/07/10 03:14:31;;;;;;;10.90;8.02;;;;;;;23.80;55.50;98604.38;5033886;28;20038;-68
2022/07/10 03:16:58;;;;;;;12.73;8.35;;;;;;;23.91;55.13;98604.66;5015776;28;20136;-68
2022/07/10 03:19:24;;;;;;;9.52;7.75;;;;;;;24.03;54.20;98599.97;5041514;28;20068;-68
2022/07/10 03:21:50;;;;;;;9.88;7.85;;;;;;;23.86;54.78;98602.97;5053191;28;20076;-68
2022/07/10 03:24:16;;;;;;;9.57;7.68;;;;;;;23.58;55.62;98605.63;5035904;28;20048;-69
2022/07/10 03:26:43;;;;;;;8.25;7.35;;;;;;;23.42;55.82;98600.16;5032318;28;20049;-69
2022/07/10 03:29:10;;;;;;;10.07;7.57;;;;;;;23.24;55.98;98606.97;5032451;28;20041;-68
2022/07/10 03:31:36;;;;;;;10.30;7.18;;;;;;;22.92;56.43;98617.53;5034549;28;20072;-69
2022/07/10 03:34:01;;;;;;;9.65;7.30;;;;;;;22.70;57.11;98612.56;5033619;28;20464;-68
2022/07/10 03:36:27;;;;;;;12.23;7.13;;;;;;;22.53;57.64;98608.13;5031369;28;20099;-69
2022/07/10 03:38:53;;;;;;;9.75;7.93;;;;;;;22.44;58.53;98594.72;5032919;28;20132;-68
2022/07/10 03:41:19;;;;;;;10.60;7.50;;;;;;;22.38;59.29;98605.00;5018304;28;20041;-68
2022/07/10 03:43:45;;;;;;;10.45;7.28;;;;;;;22.27;58.87;98606.53;5043240;28;20087;-68
2022/07/10 03:46:11;;;;;;;8.02;7.22;;;;;;;22.24;59.40;98615.28;5051768;28;20036;-70
2022/07/10 03:48:37;;;;;;;10.32;7.65;;;;;;;22.21;59.49;98607.88;5043617;28;20085;-69
2022/07/10 03:51:03;;;;;;;9.13;7.28;;;;;;;22.18;59.35;98606.63;5047848;28;20137;-69
2022/07/10 03:53:29;;;;;;;11.05;7.43;;;;;;;22.20;59.42;98612.44;5034499;28;20132;-69
2022/07/10 03:55:54;;;;;;;11.73;7.60;;;;;;;22.25;58.90;98614.16;5050663;28;20071;-68
2022/07/10 03:58:21;;;;;;;9.30;7.20;;;;;;;22.34;59.20;98628.34;5034631;28;20052;-68
2022/07/10 04:00:46;;;;;;;8.88;7.07;;;;;;;22.43;59.64;98630.97;5040830;28;20061;-69
2022/07/10 04:03:13;;;;;;;9.68;7.38;;;;;;;22.52;58.50;98631.66;5032662;28;20175;-68
2022/07/10 04:05:40;;;;;;;8.73;7.82;;;;;;;22.53;58.82;98635.16;5039337;28;20052;-69
2022/07/10 04:08:07;;;;;;;9.52;7.88;;;;;;;22.50;58.87;98630.41;5043481;28;20044;-68
2022/07/10 04:10:33;;;;;;;10.60;8.55;;;;;;;22.48;59.34;98627.28;5032592;28;20045;-67
2022/07/10 04:12:59;;;;;;;9.98;7.60;;;;;;;22.42;59.15;98629.41;5050926;28;20052;-68
2022/07/10 04:15:25;;;;;;;10.82;8.70;;;;;;;22.33;59.02;98618.69;5052460;28;20044;-68
2022/07/10 04:17:51;;;;;;;13.55;11.30;;;;;;;22.28;59.07;98624.28;5026701;28;20037;-67
2022/07/10 04:20:17;;;;;;;12.40;9.65;;;;;;;22.15;60.43;98615.34;5032531;28;20051;-68
2022/07/10 04:22:44;;;;;;;12.80;7.80;;;;;;;22.08;60.29;98611.59;5040659;28;20048;-68
2022/07/10 04:25:10;;;;;;;11.25;8.32;;;;;;;21.96;59.90;98601.56;5050906;28;20152;-68
2022/07/10 04:27:37;;;;;;;11.13;8.40;;;;;;;21.88;59.73;98599.72;5047083;28;20128;-68
2022/07/10 04:30:06;;;;;;;8.73;7.78;;;;;;;21.69;59.28;98589.41;4983066;28;20037;-68
2022/07/10 04:32:31;;;;;;;12.63;9.30;;;;;;;21.42;64.63;98580.75;5031025;28;20076;-68
2022/07/10 04:34:58;;;;;;;13.25;9.15;;;;;;;21.27;65.32;98576.69;5032147;28;20053;-69
2022/07/10 04:37:24;;;;;;;11.15;9.65;;;;;;;21.14;65.44;98568.84;5043353;28;20033;-67
2022/07/10 04:39:52;;;;;;;11.23;10.00;;;;;;;21.18;65.86;98567.88;5049205;28;20060;-67
2022/07/10 04:42:18;;;;;;;10.93;9.70;;;;;;;21.17;65.66;98579.75;5017699;28;20179;-69
2022/07/10 04:44:43;;;;;;;10.75;8.48;;;;;;;21.16;64.45;98563.94;5051745;28;20538;-69
2022/07/10 04:47:10;;;;;;;12.20;8.05;;;;;;;21.22;63.46;98582.28;5051923;28;20583;-69
2022/07/10 04:49:35;;;;;;;8.85;7.95;;;;;;;21.23;63.70;98586.53;5032238;28;20049;-68
2022/07/10 04:52:01;;;;;;;9.45;7.60;;;;;;;21.17;64.20;98585.16;5038089;28;20041;-69
2022/07/10 04:54:27;;;;;;;11.80;7.00;;;;;;;21.13;64.83;98575.38;5030397;28;20045;-69
2022/07/10 04:56:53;;;;;;;11.00;7.43;;;;;;;21.05;64.60;98568.91;5032662;28;20428;-70
2022/07/10 04:59:20;;;;;;;8.65;6.78;;;;;;;20.98;64.46;98571.34;5031800;28;20077;-69
2022/07/10 05:01:46;;;;;;;8.70;7.35;;;;;;;20.92;64.81;98572.66;5045468;28;20060;-69
2022/07/10 05:04:11;;;;;;;8.32;7.47;;;;;;;20.85;65.12;98571.25;5049605;28;20060;-69
2022/07/10 05:06:38;;;;;;;10.60;8.18;;;;;;;20.82;65.00;98582.69;5044367;28;20526;-69
2022/07/10 05:09:05;;;;;;;8.70;7.35;;;;;;;20.87;64.62;98573.59;5015443;28;20063;-69
2022/07/10 05:11:31;;;;;;;8.07;7.28;;;;;;;20.94;64.49;98573.91;5032061;28;20052;-72
2022/07/10 05:13:57;;;;;;;8.18;7.30;;;;;;;21.06;63.97;98573.16;5045281;28;20041;-69
2022/07/10 05:16:23;;;;;;;10.88;6.82;;;;;;;21.20;63.50;98571.03;5049902;28;20044;-71
2022/07/10 05:18:49;;;;;;;9.18;7.10;;;;;;;21.33;63.29;98578.09;5051627;28;20041;-68
2022/07/10 05:21:16;;;;;;;9.43;7.38;;;;;;;21.67;62.55;98572.78;5044916;28;20044;-70
2022/07/10 05:23:41;;;;;;;12.98;8.77;;;;;;;21.83;62.45;98560.25;5030318;28;20044;-70
2022/07/10 05:26:07;;;;;;;8.98;7.00;;;;;;;22.06;61.74;98565.25;5031238;28;20041;-70
2022/07/10 05:28:33;;;;;;;9.90;7.60;;;;;;;22.16;60.28;98557.53;5032721;28;20053;-72
2022/07/10 05:30:58;;;;;;;7.22;6.53;;;;;;;22.26;60.42;98560.97;5034211;28;20036;-68
2022/07/10 05:33:27;;;;;;;10.95;7.20;;;;;;;22.33;60.51;98550.41;5051145;28;20048;-69
2022/07/10 05:35:53;;;;;;;8.23;7.43;;;;;;;22.52;60.48;98558.75;5047849;28;20519;-70
2022/07/10 05:38:19;;;;;;;10.10;6.65;;;;;;;22.85;59.77;98555.94;5051275;28;20045;-69
2022/07/10 05:40:44;;;;;;;10.88;7.22;;;;;;;23.08;59.63;98558.97;5049382;28;20049;-70
2022/07/10 05:43:11;;;;;;;8.20;7.07;;;;;;;23.11;58.28;98550.19;5034644;28;20490;-68
2022/07/10 05:45:37;;;;;;;8.75;7.90;;;;;;;23.05;59.04;98564.28;5049553;28;20045;-69
2022/07/10 05:48:03;;;;;;;12.15;7.30;;;;;;;23.11;59.30;98557.50;5049918;28;20131;-68
2022/07/10 05:50:30;;;;;;;10.10;6.82;;;;;;;23.18;58.37;98562.34;5032925;28;20123;-69
2022/07/10 05:52:55;;;;;;;11.38;7.95;;;;;;;23.38;57.89;98552.50;5032795;28;20127;-68
2022/07/10 05:55:21;;;;;;;7.90;7.20;;;;;;;23.35;58.24;98551.25;5051220;28;20127;-70
2022/07/10 05:57:48;;;;;;;9.20;7.90;;;;;;;23.49;58.05;98559.00;5027814;28;20072;-69
2022/07/10 06:00:14;;;;;;;8.52;7.72;;;;;;;23.67;57.75;98552.16;5029499;28;20060;-69
2022/07/10 06:02:40;;;;;;;8.95;7.72;;;;;;;23.93;57.34;98567.19;5032196;28;20050;-69
2022/07/10 06:05:06;;;;;;;8.85;7.95;;;;;;;23.97;56.44;98566.19;5036624;28;20445;-70
2022/07/10 06:07:33;;;;;;;9.02;8.15;;;;;;;24.12;56.35;98566.53;5049211;28;20037;-68
2022/07/10 06:09:59;;;;;;;8.93;8.02;;;;;;;24.10;55.85;98571.53;5024111;28;20068;-68
2022/07/10 06:12:25;;;;;;;9.75;8.20;;;;;;;24.06;56.59;98578.75;5043035;28;20483;-68
2022/07/10 06:14:51;;;;;;;10.10;7.78;;;;;;;24.09;56.73;98584.28;5037320;28;20068;-68
2022/07/10 06:17:17;;;;;;;11.15;8.27;;;;;;;24.15;56.47;98576.66;5029664;28;20041;-68
2022/07/10 06:19:43;;;;;;;10.73;8.60;;;;;;;24.19;56.10;98578.34;5029750;28;20048;-69
2022/07/10 06:24:53;;;;;;;10.02;8.00;;;;;;;24.07;57.22;98569.50;5034573;28;20049;-67
2022/07/10 06:27:19;;;;;;;10.82;9.02;;;;;;;24.21;57.20;98569.88;5035014;28;20120;-68
2022/07/10 06:29:45;;;;;;;11.90;9.68;;;;;;;24.29;56.98;98560.00;5033736;28;20120;-66
2022/07/10 06:32:10;;;;;;;13.93;9.55;;;;;;;24.40;56.06;98561.06;5034804;28;20045;-68
2022/07/10 06:34:37;;;;;;;11.98;8.60;;;;;;;24.48;56.28;98568.25;5033082;28;20125;-68
2022/07/10 06:37:03;;;;;;;10.27;8.75;;;;;;;24.53;55.81;98578.84;5034573;28;20065;-67
2022/07/10 06:39:35;;;;;;;9.77;7.97;;;;;;;24.53;54.96;98573.44;5017442;28;20049;-69
2022/07/10 06:42:05;;;;;;;14.35;9.30;;;;;;;24.60;55.05;98576.31;5042194;28;20056;-67
2022/07/10 06:44:39;;;;;;;10.95;8.93;;;;;;;24.53;54.46;98575.31;5036243;28;20037;-66
2022/07/10 06:49:51;;;;;;;13.93;9.90;;;;;;;24.61;54.71;98579.78;5052637;28;20091;-68
2022/07/10 06:52:17;;;;;;;13.55;9.52;;;;;;;24.56;55.31;98571.91;5052593;28;20045;-68
2022/07/10 06:54:43;;;;;;;13.40;9.07;;;;;;;24.64;55.31;98560.13;5052013;28;20525;-68
2022/07/10 06:57:09;;;;;;;10.50;9.25;;;;;;;24.66;55.56;98564.06;5053784;28;20053;-69
2022/07/10 06:59:35;;;;;;;10.63;9.52;;;;;;;24.53;55.80;98569.91;5053856;28;20094;-66
2022/07/10 07:02:00;;;;;;;13.00;9.88;;;;;;;24.51;56.18;98572.19;5033774;28;20523;-68
2022/07/10 07:04:27;;;;;;;11.00;9.70;;;;;;;24.50;55.81;98573.31;5039646;28;20422;-68
2022/07/10 07:06:53;;;;;;;13.55;9.88;;;;;;;24.60;55.96;98564.69;5043248;28;20037;-71
2022/07/10 07:09:19;;;;;;;11.07;9.48;;;;;;;24.88;56.56;98564.53;5034141;28;20041;-68
2022/07/10 07:11:45;;;;;;;11.85;10.63;;;;;;;25.07;55.38;98561.13;5034974;28;20191;-69
2022/07/10 07:14:12;;;;;;;12.15;9.45;;;;;;;25.10;54.68;98563.91;5033909;28;20045;-69
2022/07/10 07:16:39;;;;;;;10.88;9.77;;;;;;;25.08;54.86;98557.25;5020943;28;20049;-68
2022/07/10 07:19:05;;;;;;;11.15;9.60;;;;;;;25.13;54.99;98568.66;5033832;28;20034;-68
2022/07/10 07:24:20;;;;;;;12.10;9.50;;;;;;;25.11;54.07;98565.47;5038253;28;20401;-68
2022/07/10 07:26:49;;;;;;;11.37;9.93;;;;;;;25.25;53.70;98569.66;5052009;28;20051;-68
2022/07/10 07:29:16;;;;;;;11.33;10.23;;;;;;;25.42;53.15;98566.53;5051792;28;20299;-68
2022/07/10 07:31:42;;;;;;;11.55;9.02;;;;;;;25.68;52.13;98570.53;5036202;28;20094;-68
2022/07/10 07:34:08;;;;;;;10.05;9.10;;;;;;;25.90;52.00;98567.13;5020929;28;20478;-66
2022/07/10 07:36:34;;;;;;;11.40;9.32;;;;;;;26.00;51.99;98572.00;5035536;28;20133;-66
2022/07/10 07:39:01;;;;;;;13.15;9.70;;;;;;;26.15;51.95;98569.50;5047672;28;20124;-68
2022/07/10 07:41:29;;;;;;;13.15;9.77;;;;;;;26.22;51.06;98572.38;5016489;28;20040;-64
2022/07/10 07:43:57;;;;;;;15.23;10.38;;;;;;;26.25;50.81;98575.13;4998948;28;20489;-68
2022/07/10 07:46:24;;;;;;;13.52;9.43;;;;;;;26.32;48.21;98563.59;5031759;28;20068;-69
2022/07/10 07:48:50;;;;;;;10.35;8.10;;;;;;;26.42;46.97;98573.09;5033037;28;20042;-66
2022/07/10 07:51:16;;;;;;;9.20;7.97;;;;;;;26.29;46.99;98575.97;5034801;28;20116;-65
2022/07/10 07:53:41;;;;;;;12.55;7.85;;;;;;;26.13;47.58;98580.75;5044854;28;20490;-67
2022/07/10 07:56:07;;;;;;;10.20;8.07;;;;;;;25.93;48.17;98590.06;5034319;28;20042;-68
2022/07/10 07:58:33;;;;;;;8.65;7.75;;;;;;;25.84;48.10;98590.28;5044281;28;20050;-66
2022/07/10 08:00:58;;;;;;;14.15;7.82;;;;;;;25.77;47.70;98579.28;5039452;28;20549;-65
2022/07/10 08:03:24;;;;;;;12.38;7.25;;;;;;;25.68;47.07;98582.19;5032041;28;20041;-64
2022/07/10 08:05:50;;;;;;;12.90;8.18;;;;;;;25.69;47.05;98583.75;5032528;28;20044;-65
2022/07/10 08:08:16;;;;;;;8.93;6.95;;;;;;;25.70;46.49;98581.81;5032277;28;20042;-67
2022/07/10 08:10:42;;;;;;;9.02;7.93;;;;;;;25.73;47.41;98581.88;4982409;28;20092;-63
2022/07/10 08:13:08;;;;;;;10.15;8.07;;;;;;;25.80;46.60;98595.63;5016493;28;20076;-64
2022/07/10 08:15:34;;;;;;;9.98;8.05;;;;;;;25.81;46.22;98585.53;5037145;28;20489;-65
2022/07/10 08:18:03;;;;;;;8.57;7.68;;;;;;;25.83;47.14;98594.94;5045023;28;20143;-64
2022/07/10 08:20:29;;;;;;;13.63;7.50;;;;;;;25.81;47.06;98597.19;5041843;28;20049;-66
2022/07/10 08:22:56;;;;;;;10.02;8.05;;;;;;;25.87;47.98;98596.94;5048730;28;20041;-67
2022/07/10 08:25:21;;;;;;;9.50;8.30;;;;;;;25.98;48.13;98598.69;5049970;28;20117;-65
2022/07/10 08:27:47;;;;;;;13.73;9.07;;;;;;;26.10;46.61;98595.03;5048724;28;20494;-65
2022/07/10 08:30:13;;;;;;;13.15;8.82;;;;;;;26.27;47.45;98594.59;5032759;28;20550;-67
2022/07/10 08:32:41;;;;;;;13.13;8.73;;;;;;;26.31;47.48;98602.78;5049499;28;20049;-68
2022/07/10 08:35:07;;;;;;;12.63;8.90;;;;;;;26.31;47.64;98596.56;5050442;28;20395;-67
2022/07/10 08:37:44;;;;;;;9.77;8.75;;;;;;;26.26;47.58;98595.72;5050474;28;20499;-68
2022/07/10 08:40:12;;;;;;;12.80;8.70;;;;;;;26.25;48.54;98601.53;5048670;28;20414;-68
2022/07/10 08:42:39;;;;;;;13.50;8.65;;;;;;;26.26;48.65;98594.94;5016056;28;20445;-67
2022/07/10 08:45:06;;;;;;;10.80;9.00;;;;;;;26.21;47.56;98590.59;5031806;28;20124;-67
2022/07/10 08:47:35;;;;;;;12.25;8.77;;;;;;;26.22;47.99;98591.38;5051216;28;20041;-67
2022/07/10 08:50:01;;;;;;;18.50;9.27;;;;;;;26.09;47.88;98582.63;5031701;28;20029;-69
2022/07/10 08:52:33;;;;;;;10.90;8.23;;;;;;;25.94;48.94;98573.44;5048666;28;20307;-69
2022/07/10 08:54:59;;;;;;;15.18;8.88;;;;;;;25.88;49.11;98574.84;5050526;28;20049;-71
2022/07/10 08:57:26;;;;;;;12.13;8.60;;;;;;;25.84;48.64;98576.72;5050889;28;20082;-69
2022/07/10 08:59:52;;;;;;;13.48;9.13;;;;;;;25.85;48.93;98578.28;5050517;28;20121;-68
2022/07/10 09:02:17;;;;;;;13.02;9.10;;;;;;;25.92;48.91;98569.50;5051568;28;20528;-70
2022/07/10 09:04:43;;;;;;;14.93;9.27;;;;;;;25.97;48.88;98572.72;5051513;28;20048;-69
2022/07/10 09:07:09;;;;;;;11.27;8.80;;;;;;;26.01;48.07;98576.25;5051791;28;20052;-69
2022/07/10 09:09:55;;;;;;;11.43;9.02;;;;;;;26.15;48.35;98575.75;5051493;28;20040;-70
2022/07/10 09:12:22;;;;;;;14.55;9.45;;;;;;;26.26;47.52;98567.75;5050281;28;20037;-69
2022/07/10 09:14:49;;;;;;;13.00;8.95;;;;;;;26.36;48.16;98566.41;5049975;28;20517;-69
2022/07/10 09:17:16;;;;;;;13.45;9.85;;;;;;;26.47;46.94;98570.88;5049455;28;20045;-69
2022/07/10 09:19:42;;;;;;;12.75;9.38;;;;;;;26.47;47.86;98565.44;5051634;28;20171;-69
2022/07/10 09:22:09;;;;;;;16.17;10.05;;;;;;;26.40;47.75;98559.88;5051286;28;20439;-69
2022/07/10 09:24:43;;;;;;;16.35;10.73;;;;;;;26.28;47.66;98565.47;5051437;28;20047;-70
2022/07/10 09:27:10;;;;;;;10.80;9.55;;;;;;;26.17;47.66;98562.56;5051402;28;20095;-69
2022/07/10 09:30:08;;;;;;;10.32;9.05;;;;;;;26.09;47.84;98570.94;5051713;28;20064;-69
2022/07/10 09:32:34;;;;;;;15.02;9.70;;;;;;;26.09;48.45;98563.63;5049592;28;20143;-69
2022/07/10 09:37:44;;;;;;;14.43;9.65;;;;;;;26.44;48.14;98557.19;5050205;28;20135;-69
2022/07/10 09:40:10;;;;;;;14.68;9.55;;;;;;;26.57;48.27;98561.34;5051316;28;20179;-70
2022/07/10 09:42:44;;;;;;;14.27;9.65;;;;;;;26.67;47.24;98559.94;5050049;28;20400;-70
2022/07/10 09:45:10;;;;;;;13.60;10.07;;;;;;;26.75;47.42;98556.19;5051271;28;20045;-69
2022/07/10 09:47:36;;;;;;;15.70;10.38;;;;;;;26.78;47.77;98552.72;5051275;28;20049;-68
2022/07/10 09:50:03;;;;;;;26.30;10.45;;;;;;;26.78;47.77;98550.00;5051233;28;20057;-69
2022/07/10 09:52:29;;;;;;;13.57;9.88;;;;;;;26.76;47.43;98537.94;5051087;28;20053;-68
2022/07/10 09:54:59;;;;;;;12.20;9.85;;;;;;;26.85;47.91;98547.38;5049705;28;20048;-69
2022/07/10 09:57:26;;;;;;;12.68;9.85;;;;;;;27.15;46.80;98542.03;5035282;28;20558;-68
2022/07/10 09:59:53;;;;;;;13.70;10.07;;;;;;;27.16;45.79;98545.53;5055037;28;20095;-69
2022/07/10 10:02:19;;;;;;;12.55;10.10;;;;;;;27.08;45.85;98536.44;5053752;28;20502;-69
2022/07/10 10:04:46;;;;;;;11.20;9.95;;;;;;;27.01;45.87;98532.88;5037099;28;20115;-69
2022/07/10 10:07:12;;;;;;;11.05;9.93;;;;;;;27.04;46.82;98532.13;5053770;28;20514;-69
2022/07/10 10:09:45;;;;;;;11.80;10.02;;;;;;;27.15;46.25;98523.00;5053529;28;20056;-71
2022/07/10 10:12:24;;;;;;;12.05;10.20;;;;;;;27.26;45.83;98516.88;5037141;28;20052;-70
2022/07/10 10:14:49;;;;;;;13.25;9.82;;;;;;;27.37;45.94;98515.88;5053565;28;20036;-69
2022/07/10 10:17:16;;;;;;;10.13;8.45;;;;;;;27.36;42.77;98511.59;5053681;28;20640;-70
2022/07/10 10:22:27;;;;;;;10.18;6.45;;;;;;;27.25;40.31;98510.66;5039390;28;20051;-68
2022/07/10 10:24:54;;;;;;;9.77;6.75;;;;;;;27.28;40.65;98501.75;5053080;28;20037;-69
2022/07/10 10:27:20;;;;;;;8.57;6.43;;;;;;;27.35;40.51;98499.13;5020238;28;20041;-69
2022/07/10 10:29:47;;;;;;;16.65;7.97;;;;;;;27.41;41.60;98496.84;5054486;28;20087;-68
2022/07/10 10:32:13;;;;;;;9.90;6.82;;;;;;;27.46;41.67;98493.03;5054791;28;20041;-68
2022/07/10 10:34:43;;;;;;;8.48;6.90;;;;;;;27.38;41.06;98498.41;5053058;28;20319;-69
2022/07/10 10:37:27;;;;;;;;;;;;;;;27.36;41.27;98499.91;5054939;28;20103;-68
2022/07/10 10:39:56;;;;;;;8.75;6.75;;;;;;;27.38;41.69;98497.59;5052948;28;20347;-69
2022/07/10 10:42:34;;;;;;;9.40;7.40;;;;;;;27.47;41.21;98497.31;5036342;28;20041;-69
2022/07/10 10:45:35;;;;;;;7.88;6.88;;;;;;;27.45;41.48;98508.56;5054212;28;20049;-69
2022/07/10 10:48:13;;;;;;;8.18;6.97;;;;;;;27.30;42.16;98499.47;5052955;28;20044;-69
2022/07/10 10:50:46;;;;;;;10.60;7.60;;;;;;;27.22;42.52;98503.25;5054033;28;20426;-69
2022/07/10 10:53:15;;;;;;;9.68;7.07;;;;;;;27.08;42.27;98505.75;5054538;28;20049;-69
2022/07/10 10:55:59;;;;;;;;;;;;;;;27.14;42.29;98496.09;5052976;28;20426;-69
2022/07/10 10:58:46;;;;;;;9.63;6.80;;;;;;;27.13;41.69;98500.00;5052887;28;19925;-69
2022/07/10 11:01:21;;;;;;;8.27;6.80;;;;;;;27.21;41.82;98506.31;5052297;28;20552;-68
2022/07/10 11:04:05;;;;;;;8.80;6.95;;;;;;;27.32;42.02;98496.34;5053760;28;20041;-69
2022/07/10 11:06:41;;;;;;;15.05;7.25;;;;;;;27.45;41.45;98505.06;5052583;28;20036;-68
2022/07/10 11:09:25;;;;;;;11.30;5.80;;;;;;;27.51;40.16;98504.38;5051258;28;20041;-68
2022/07/10 11:12:04;;;;;;;8.05;5.38;;;;;;;27.56;38.60;98495.06;5053791;28;20095;-69
2022/07/10 11:14:34;;;;;;;6.40;5.28;;;;;;;27.78;38.60;98510.50;5053467;28;20052;-69
2022/07/10 11:17:00;;;;;;;;;;;;;;;27.91;37.37;98507.53;5054231;28;20049;-68
2022/07/10 11:19:30;;;;;;;12.35;5.20;;;;;;;28.03;36.58;98507.25;5052108;28;20134;-69
2022/07/10 11:22:05;;;;;;;5.43;4.70;;;;;;;28.04;36.16;98504.16;5052090;28;20422;-69
2022/07/10 11:24:42;;;;;;;6.90;5.20;;;;;;;28.07;35.89;98494.44;5053690;28;20048;-68
2022/07/10 11:27:34;;;;;;;16.73;4.70;;;;;;;28.13;35.64;98497.63;5052255;28;20079;-67
2022/07/10 11:30:00;;;;;;;6.97;4.75;;;;;;;28.11;36.66;98497.97;5052161;28;20041;-68
2022/07/10 11:32:27;;;;;;;8.82;4.78;;;;;;;28.10;36.15;98499.16;5035494;28;20051;-69
2022/07/10 11:34:53;;;;;;;11.70;4.82;;;;;;;28.12;36.35;98502.28;5053204;28;20038;-69
2022/07/10 11:37:20;;;;;;;9.43;4.50;;;;;;;28.10;36.42;98498.38;5053458;28;20057;-69
2022/07/10 11:39:45;;;;;;;8.43;4.78;;;;;;;28.06;36.64;98493.69;5053144;28;20037;-68
2022/07/10 11:42:11;;;;;;;6.15;4.55;;;;;;;28.13;37.55;98503.84;5051871;28;20080;-68
2022/07/10 11:44:37;;;;;;;5.38;4.68;;;;;;;28.28;36.94;98505.53;5052938;28;20045;-69